Time;durP1;ratioP1;P1;durP2;ratioP2;P2;SDS_P1;SDS_P2;PMS_P1;PMS_P2;Temp;Humidity;BMP_temperature;BMP_pressure;BME280_temperature;BME280_humidity;BME280_pressure;Samples;Min_cycle;Max_cycle;Signal;HPM_P1;HPM_P2
2022/12/24 00:00:28;;;;;;;;;;;14.70;99.90;;;;;;5044837;28;20167;-74
2022/12/24 00:02:53;;;;;;;;;;;14.70;99.90;;;;;;5042810;28;19913;-75
2022/12/24 00:05:19;;;;;;;;;;;14.50;99.90;;;;;;5039483;28;19917;-75
2022/12/24 00:07:44;;;;;;;;;;;14.60;99.90;;;;;;5038880;28;19920;-76
2022/12/24 00:10:10;;;;;;;;;;;14.50;99.90;;;;;;5039514;28;20224;-75
2022/12/24 00:12:36;;;;;;;;;;;14.40;99.90;;;;;;5034655;28;19908;-76
2022/12/24 00:15:02;;;;;;;;;;;14.50;99.90;;;;;;5033949;28;20406;-74
2022/12/24 00:17:27;;;;;;;;;;;14.40;99.90;;;;;;5044492;28;19940;-74
2022/12/24 00:19:53;;;;;;;;;;;14.50;99.90;;;;;;5039658;28;19959;-75
2022/12/24 00:22:18;;;;;;;;;;;14.40;99.90;;;;;;5046012;28;20004;-76
2022/12/24 00:24:44;;;;;;;;;;;14.30;99.90;;;;;;5044487;28;19913;-75
2022/12/24 00:27:09;;;;;;;;;;;14.40;99.90;;;;;;5040574;28;20294;-77
2022/12/24 00:29:35;;;;;;;;;;;14.30;99.90;;;;;;5035072;28;19948;-75
2022/12/24 00:32:00;;;;;;;;;;;14.20;99.90;;;;;;5038528;28;20461;-74
2022/12/24 00:34:26;;;;;;;;;;;14.30;99.90;;;;;;5037927;28;19915;-74
2022/12/24 00:36:51;;;;;;;;;;;14.30;99.90;;;;;;5037628;28;19908;-76
2022/12/24 00:39:17;;;;;;;;;;;14.30;99.90;;;;;;5043513;28;19952;-76
2022/12/24 00:41:42;;;;;;;;;;;14.30;99.90;;;;;;5045398;28;19913;-75
2022/12/24 00:44:11;;;;;;;;;;;14.30;99.90;;;;;;5039190;28;19909;-76
2022/12/24 00:46:38;;;;;;;;;;;14.30;99.90;;;;;;5027728;28;19913;-74
2022/12/24 00:49:04;;;;;;;;;;;14.20;99.90;;;;;;5032450;28;19988;-74
2022/12/24 00:51:30;;;;;;;;;;;14.20;99.90;;;;;;5037703;28;19913;-74
2022/12/24 00:53:55;;;;;;;;;;;14.20;99.90;;;;;;5041911;28;19917;-76
2022/12/24 00:56:21;;;;;;;;;;;14.20;99.90;;;;;;5038240;28;19920;-75
2022/12/24 00:58:47;;;;;;;;;;;14.10;99.90;;;;;;5035152;28;19952;-76
2022/12/24 01:01:13;;;;;;;;;;;14.00;99.90;;;;;;5043979;28;19917;-77
2022/12/24 01:03:38;;;;;;;;;;;14.10;99.90;;;;;;5042939;28;19923;-73
2022/12/24 01:06:05;;;;;;;;;;;14.00;99.90;;;;;;5038615;28;20494;-76
2022/12/24 01:08:31;;;;;;;;;;;14.00;99.90;;;;;;5040506;28;19957;-73
2022/12/24 01:10:57;;;;;;;;;;;14.00;99.90;;;;;;5056629;28;19948;-77
2022/12/24 01:13:23;;;;;;;;;;;13.90;99.90;;;;;;5036146;28;19990;-75
2022/12/24 01:15:49;;;;;;;;;;;13.90;99.90;;;;;;5044100;28;20399;-73
2022/12/24 01:18:14;;;;;;;;;;;13.80;99.90;;;;;;5037295;28;19917;-77
2022/12/24 01:20:39;;;;;;;;;;;13.80;99.90;;;;;;5043522;28;19912;-72
2022/12/24 01:23:05;;;;;;;;;;;13.70;99.90;;;;;;5044574;28;20097;-76
2022/12/24 01:25:30;;;;;;;;;;;13.60;99.90;;;;;;5038702;28;19913;-76
2022/12/24 01:27:56;;;;;;;;;;;13.60;99.90;;;;;;5060863;28;19923;-76
2022/12/24 01:30:21;;;;;;;;;;;13.50;99.90;;;;;;5061902;28;19917;-77
2022/12/24 01:32:47;;;;;;;;;;;13.40;99.90;;;;;;5060627;28;19915;-78
2022/12/24 01:35:12;;;;;;;;;;;13.40;99.90;;;;;;5061070;28;20550;-75
2022/12/24 01:37:38;;;;;;;;;;;13.30;99.90;;;;;;5063186;28;19913;-75
2022/12/24 01:45:38;;;;;;;;;;;13.20;99.90;;;;;;5054965;28;19931;-76
2022/12/24 01:48:04;;;;;;;;;;;13.10;99.90;;;;;;5047597;28;19909;-75
2022/12/24 01:50:30;;;;;;;;;;;13.00;99.90;;;;;;5041690;28;20442;-74
2022/12/24 01:52:56;;;;;;;;;;;13.10;99.90;;;;;;5047136;28;19913;-73
2022/12/24 01:55:22;;;;;;;;;;;13.10;99.90;;;;;;5042429;28;19913;-75
2022/12/24 01:57:55;;;;;;;;;;;13.20;99.90;;;;;;5039140;28;19916;-76
2022/12/24 02:00:21;;;;;;;;;;;13.30;99.90;;;;;;5045722;28;19940;-75
2022/12/24 02:02:48;;;;;;;;;;;13.40;99.90;;;;;;5038849;28;19955;-74
2022/12/24 02:05:15;;;;;;;;;;;13.40;99.90;;;;;;5038722;28;19921;-73
2022/12/24 02:07:41;;;;;;;;;;;13.40;99.90;;;;;;5035887;28;19908;-75
2022/12/24 02:10:07;;;;;;;;;;;13.50;99.90;;;;;;5040753;28;19921;-76
2022/12/24 02:12:34;;;;;;;;;;;13.50;99.90;;;;;;5047618;28;19909;-76
2022/12/24 02:15:00;;;;;;;;;;;13.50;99.90;;;;;;5034895;28;19909;-74
2022/12/24 02:17:34;;;;;;;;;;;13.50;99.90;;;;;;5038368;28;20306;-74
2022/12/24 02:20:13;;;;;;;;;;;13.60;99.90;;;;;;5041690;28;19913;-74
2022/12/24 02:22:48;;;;;;;;;;;13.60;99.90;;;;;;5041427;28;19909;-76
2022/12/24 02:25:29;;;;;;;;;;;13.70;99.90;;;;;;5038823;28;20007;-76
2022/12/24 02:28:07;;;;;;;;;;;13.80;99.90;;;;;;5040923;28;19909;-77
2022/12/24 02:30:37;;;;;;;;;;;13.80;99.90;;;;;;5037786;28;19972;-75
2022/12/24 02:33:03;;;;;;;;;;;13.90;99.90;;;;;;5037428;28;20421;-78
2022/12/24 02:35:45;;;;;;;;;;;13.80;99.90;;;;;;5056341;28;19955;-74
2022/12/24 02:38:13;;;;;;;;;;;14.00;99.90;;;;;;5046571;28;20461;-76
2022/12/24 02:40:47;;;;;;;;;;;14.00;99.90;;;;;;5036788;28;19913;-78
2022/12/24 02:43:15;;;;;;;;;;;14.00;99.90;;;;;;5041609;28;20268;-76
2022/12/24 02:45:43;;;;;;;;;;;14.00;99.90;;;;;;5050447;28;19974;-76
2022/12/24 02:48:11;;;;;;;;;;;13.90;99.90;;;;;;5039031;28;19944;-76
2022/12/24 02:50:36;;;;;;;;;;;13.90;99.90;;;;;;5038905;28;19917;-75
2022/12/24 02:53:02;;;;;;;;;;;14.00;99.90;;;;;;5044614;28;19943;-75
2022/12/24 02:55:27;;;;;;;;;;;14.10;99.90;;;;;;5039116;28;20018;-76
2022/12/24 02:58:11;;;;;;;;;;;14.20;99.90;;;;;;5041704;28;20286;-75
2022/12/24 03:01:14;;;;;;;;;;;14.10;99.90;;;;;;5048269;28;20364;-77
2022/12/24 03:03:46;;;;;;;;;;;14.20;99.90;;;;;;5041980;28;19980;-75
2022/12/24 03:06:11;;;;;;;;;;;14.40;99.90;;;;;;5043638;28;20387;-75
2022/12/24 03:08:42;;;;;;;;;;;14.40;99.90;;;;;;5038272;28;19934;-76
2022/12/24 03:11:09;;;;;;;;;;;14.30;99.90;;;;;;5044162;28;19964;-76
2022/12/24 03:13:35;;;;;;;;;;;14.50;99.90;;;;;;5048958;28;20368;-76
2022/12/24 03:16:03;;;;;;;;;;;14.40;99.90;;;;;;5051448;28;20008;-74
2022/12/24 03:18:29;;;;;;;;;;;14.50;99.90;;;;;;5049738;28;20501;-73
2022/12/24 03:20:58;;;;;;;;;;;14.50;99.90;;;;;;5051147;28;19979;-74
2022/12/24 03:23:23;;;;;;;;;;;14.60;99.90;;;;;;5046519;28;19924;-74
2022/12/24 03:25:49;;;;;;;;;;;14.60;99.90;;;;;;5044773;28;19928;-75
2022/12/24 03:28:16;;;;;;;;;;;14.60;99.90;;;;;;5045901;28;20015;-77
2022/12/24 03:30:43;;;;;;;;;;;14.80;99.90;;;;;;5047373;28;19913;-77
2022/12/24 03:33:09;;;;;;;;;;;14.80;99.90;;;;;;5044063;28;20605;-76
2022/12/24 03:35:34;;;;;;;;;;;14.80;99.90;;;;;;5043599;28;20000;-76
2022/12/24 03:38:00;;;;;;;;;;;14.90;99.90;;;;;;5042858;28;19940;-74
2022/12/24 03:40:25;;;;;;;;;;;14.90;99.90;;;;;;5057815;28;20144;-76
2022/12/24 03:42:51;;;;;;;;;;;15.00;99.90;;;;;;5052316;28;19912;-77
2022/12/24 03:45:16;;;;;;;;;;;15.00;99.90;;;;;;5046093;28;19917;-77
2022/12/24 03:47:42;;;;;;;;;;;15.10;99.90;;;;;;5036890;28;19908;-76
2022/12/24 03:50:07;;;;;;;;;;;15.20;99.90;;;;;;5037097;28;19913;-75
2022/12/24 03:52:33;;;;;;;;;;;15.20;99.90;;;;;;5035919;28;19958;-76
2022/12/24 03:54:58;;;;;;;;;;;15.20;99.90;;;;;;5039238;28;19913;-75
2022/12/24 03:57:24;;;;;;;;;;;15.20;99.90;;;;;;5036827;28;20276;-73
2022/12/24 03:59:49;;;;;;;;;;;15.30;99.90;;;;;;5036403;28;19917;-76
2022/12/24 04:02:15;;;;;;;;;;;15.30;99.90;;;;;;5039277;28;20561;-75
2022/12/24 04:04:40;;;;;;;;;;;15.40;99.90;;;;;;5034102;28;19917;-76
2022/12/24 04:07:06;;;;;;;;;;;15.30;99.90;;;;;;5027586;28;20469;-76
2022/12/24 04:09:31;;;;;;;;;;;15.20;99.90;;;;;;5045305;28;19978;-73
2022/12/24 04:11:57;;;;;;;;;;;15.40;99.90;;;;;;5044789;28;20457;-76
2022/12/24 04:14:22;;;;;;;;;;;15.40;99.90;;;;;;5043417;28;19952;-76
2022/12/24 04:16:48;;;;;;;;;;;15.40;99.90;;;;;;5040766;28;19928;-78
2022/12/24 04:19:13;;;;;;;;;;;15.40;99.90;;;;;;5039753;28;19921;-76
2022/12/24 04:21:39;;;;;;;;;;;15.40;99.90;;;;;;5046102;28;19916;-76
2022/12/24 04:24:04;;;;;;;;;;;15.50;99.90;;;;;;5045210;28;19915;-77
2022/12/24 04:26:30;;;;;;;;;;;15.60;99.90;;;;;;5036964;28;20424;-76
2022/12/24 04:28:55;;;;;;;;;;;15.50;99.90;;;;;;5033479;28;19917;-75
2022/12/24 04:31:21;;;;;;;;;;;15.50;99.90;;;;;;5034711;28;19910;-75
2022/12/24 04:33:46;;;;;;;;;;;15.50;99.90;;;;;;5043662;28;19913;-76
2022/12/24 04:36:13;;;;;;;;;;;15.50;99.90;;;;;;5049305;28;19916;-75
2022/12/24 04:38:39;;;;;;;;;;;15.50;99.90;;;;;;5035412;28;19928;-76
2022/12/24 04:41:06;;;;;;;;;;;15.50;99.90;;;;;;5047686;28;19909;-75
2022/12/24 04:43:31;;;;;;;;;;;15.50;99.90;;;;;;5048554;28;20004;-75
2022/12/24 04:46:23;;;;;;;;;;;15.50;99.90;;;;;;5041630;28;19916;-75
2022/12/24 04:48:50;;;;;;;;;;;15.50;99.90;;;;;;5036124;28;19921;-75
2022/12/24 04:51:16;;;;;;;;;;;15.50;99.90;;;;;;5035833;28;19948;-75
2022/12/24 04:53:42;;;;;;;;;;;15.50;99.90;;;;;;5029685;28;20367;-76
2022/12/24 04:56:15;;;;;;;;;;;15.50;99.90;;;;;;5042818;28;19916;-76
2022/12/24 04:58:41;;;;;;;;;;;15.50;99.90;;;;;;5038577;28;19924;-73
2022/12/24 05:01:07;;;;;;;;;;;15.50;99.90;;;;;;5042991;28;19913;-76
2022/12/24 05:03:33;;;;;;;;;;;15.50;99.90;;;;;;5029681;28;19924;-77
2022/12/24 05:06:02;;;;;;;;;;;15.50;99.90;;;;;;5042512;28;19908;-75
2022/12/24 05:08:28;;;;;;;;;;;15.50;99.90;;;;;;5040580;28;19913;-75
2022/12/24 05:10:54;;;;;;;;;;;15.50;99.90;;;;;;5043497;28;19917;-76
2022/12/24 05:13:20;;;;;;;;;;;15.50;99.90;;;;;;5042674;28;19919;-76
2022/12/24 05:15:45;;;;;;;;;;;15.50;99.90;;;;;;5036343;28;19913;-75
2022/12/24 05:18:11;;;;;;;;;;;15.50;99.90;;;;;;5042461;28;20187;-73
2022/12/24 05:20:36;;;;;;;;;;;15.50;99.90;;;;;;5036801;28;20437;-75
2022/12/24 05:28:30;;;;;;;;;;;15.40;99.90;;;;;;5032650;28;20274;-75
2022/12/24 05:30:55;;;;;;;;;;;15.40;99.90;;;;;;5039251;28;20000;-76
2022/12/24 05:33:21;;;;;;;;;;;15.40;99.90;;;;;;5036935;28;19913;-75
2022/12/24 05:35:46;;;;;;;;;;;15.40;99.90;;;;;;5033339;28;19936;-76
2022/12/24 05:38:12;;;;;;;;;;;15.30;99.90;;;;;;5044343;28;19917;-77
2022/12/24 05:40:37;;;;;;;;;;;15.40;99.90;;;;;;5036268;28;19963;-77
2022/12/24 05:43:03;;;;;;;;;;;15.40;99.90;;;;;;5040743;28;20329;-75
2022/12/24 05:45:28;;;;;;;;;;;15.30;99.90;;;;;;5045742;28;19913;-77
2022/12/24 05:47:53;;;;;;;;;;;15.30;99.90;;;;;;5039025;28;20434;-76
2022/12/24 05:50:19;;;;;;;;;;;15.30;99.90;;;;;;5043892;28;19947;-76
2022/12/24 05:52:44;;;;;;;;;;;15.30;99.90;;;;;;5036876;28;19909;-75
2022/12/24 05:55:10;;;;;;;;;;;15.20;99.90;;;;;;5037420;28;19925;-73
2022/12/24 05:57:35;;;;;;;;;;;15.30;99.90;;;;;;5038772;28;19962;-75
2022/12/24 06:00:01;;;;;;;;;;;15.20;99.90;;;;;;5035878;28;20312;-75
2022/12/24 06:02:26;;;;;;;;;;;15.10;99.90;;;;;;5043796;28;20263;-76
2022/12/24 06:04:52;;;;;;;;;;;15.20;99.90;;;;;;5041478;28;20016;-77
2022/12/24 06:07:17;;;;;;;;;;;15.10;99.90;;;;;;5041315;28;19912;-76
2022/12/24 06:09:43;;;;;;;;;;;15.10;99.90;;;;;;5037841;28;19924;-78
2022/12/24 06:12:08;;;;;;;;;;;15.10;99.90;;;;;;5043648;28;20006;-75
2022/12/24 06:14:33;;;;;;;;;;;15.00;99.90;;;;;;5038302;28;19913;-75
2022/12/24 06:16:59;;;;;;;;;;;14.90;99.90;;;;;;5047430;28;20063;-74
2022/12/24 06:19:24;;;;;;;;;;;14.90;99.90;;;;;;5042853;28;20019;-76
2022/12/24 06:21:50;;;;;;;;;;;14.80;99.90;;;;;;5039448;28;19912;-76
2022/12/24 06:24:15;;;;;;;;;;;14.80;99.90;;;;;;5043710;28;19916;-75
2022/12/24 06:26:41;;;;;;;;;;;14.70;99.90;;;;;;5044806;28;20048;-75
2022/12/24 06:29:06;;;;;;;;;;;14.60;99.90;;;;;;5049352;28;19916;-75
2022/12/24 06:31:32;;;;;;;;;;;14.60;99.90;;;;;;5050865;28;19912;-76
2022/12/24 06:33:57;;;;;;;;;;;14.50;99.90;;;;;;5045523;28;19919;-76
2022/12/24 06:36:23;;;;;;;;;;;14.40;99.90;;;;;;5043211;28;19917;-76
2022/12/24 06:38:50;;;;;;;;;;;14.30;99.90;;;;;;5047638;28;20436;-77
2022/12/24 06:41:16;;;;;;;;;;;14.30;99.90;;;;;;5047976;28;19943;-77
2022/12/24 06:43:45;;;;;;;;;;;14.30;99.90;;;;;;5037057;28;19917;-77
2022/12/24 06:46:11;;;;;;;;;;;14.20;99.90;;;;;;5038065;28;19908;-77
2022/12/24 06:48:36;;;;;;;;;;;14.20;99.90;;;;;;5040713;28;20012;-77
2022/12/24 06:51:02;;;;;;;;;;;14.10;99.90;;;;;;5045540;28;20011;-76
2022/12/24 06:53:28;;;;;;;;;;;14.10;99.90;;;;;;5042868;28;20542;-78
2022/12/24 06:55:59;;;;;;;;;;;14.10;99.90;;;;;;5050254;28;20500;-76
2022/12/24 06:58:25;;;;;;;;;;;14.10;99.90;;;;;;5042315;28;20310;-76
2022/12/24 07:00:50;;;;;;;;;;;14.20;99.90;;;;;;5045566;28;19917;-76
2022/12/24 07:03:15;;;;;;;;;;;14.20;99.90;;;;;;5046601;28;20359;-75
2022/12/24 07:05:41;;;;;;;;;;;14.20;99.90;;;;;;5045397;28;19924;-75
2022/12/24 07:08:07;;;;;;;;;;;14.20;99.90;;;;;;5048347;28;19920;-75
2022/12/24 07:10:33;;;;;;;;;;;14.30;99.90;;;;;;5044677;28;19916;-76
2022/12/24 07:12:58;;;;;;;;;;;14.40;99.90;;;;;;5039974;28;20010;-73
2022/12/24 07:15:23;;;;;;;;;;;14.40;99.90;;;;;;5042914;28;19913;-75
2022/12/24 07:17:49;;;;;;;;;;;14.50;99.90;;;;;;5035643;28;19917;-76
2022/12/24 07:20:14;;;;;;;;;;;14.50;99.90;;;;;;5034883;28;19921;-76
2022/12/24 07:22:40;;;;;;;;;;;14.50;99.90;;;;;;5045403;28;19909;-73
2022/12/24 07:25:06;;;;;;;;;;;14.50;99.90;;;;;;5034938;28;19948;-74
2022/12/24 07:27:31;;;;;;;;;;;14.50;99.90;;;;;;5048843;28;20015;-75
2022/12/24 07:29:57;;;;;;;;;;;14.40;99.90;;;;;;5045762;28;19908;-75
2022/12/24 07:32:22;;;;;;;;;;;14.50;99.90;;;;;;5034394;28;20012;-75
2022/12/24 07:34:48;;;;;;;;;;;14.50;99.90;;;;;;5037399;28;19920;-76
2022/12/24 07:37:13;;;;;;;;;;;14.50;99.90;;;;;;5047182;28;19970;-74
2022/12/24 07:39:39;;;;;;;;;;;14.40;99.90;;;;;;5042476;28;19917;-76
2022/12/24 07:42:06;;;;;;;;;;;14.50;99.90;;;;;;5034636;28;19928;-75
2022/12/24 07:44:32;;;;;;;;;;;14.50;99.90;;;;;;5035143;28;19985;-76
2022/12/24 07:46:57;;;;;;;;;;;14.50;99.90;;;;;;5038956;28;19909;-74
2022/12/24 07:49:23;;;;;;;;;;;14.50;99.90;;;;;;5043360;28;20071;-75
2022/12/24 07:51:48;;;;;;;;;;;14.50;99.90;;;;;;5047696;28;19932;-75
2022/12/24 07:54:14;;;;;;;;;;;14.50;99.90;;;;;;5042809;28;19913;-77
2022/12/24 07:56:39;;;;;;;;;;;14.40;99.90;;;;;;5045055;28;20270;-75
2022/12/24 07:59:05;;;;;;;;;;;14.40;99.90;;;;;;5035840;28;19924;-75
2022/12/24 08:01:30;;;;;;;;;;;14.40;99.90;;;;;;5056858;28;20019;-74
2022/12/24 08:03:56;;;;;;;;;;;14.30;99.90;;;;;;5055803;28;19975;-75
2022/12/24 08:06:21;;;;;;;;;;;14.40;99.90;;;;;;5039775;28;19914;-76
2022/12/24 08:08:46;;;;;;;;;;;14.40;99.90;;;;;;5036060;28;19931;-76
2022/12/24 08:11:12;;;;;;;;;;;14.30;99.90;;;;;;5041553;28;19921;-76
2022/12/24 08:13:38;;;;;;;;;;;14.30;99.90;;;;;;5031959;28;19943;-75
2022/12/24 08:16:03;;;;;;;;;;;14.30;99.90;;;;;;5038770;28;19962;-74
2022/12/24 08:18:29;;;;;;;;;;;14.30;99.90;;;;;;5035418;28;19919;-73
2022/12/24 08:20:55;;;;;;;;;;;14.30;99.90;;;;;;5045148;28;19913;-76
2022/12/24 08:23:20;;;;;;;;;;;14.20;99.90;;;;;;5043402;28;19915;-74
2022/12/24 08:25:46;;;;;;;;;;;14.20;99.90;;;;;;5044375;28;19996;-75
2022/12/24 08:28:13;;;;;;;;;;;14.20;99.90;;;;;;5057241;28;19920;-75
2022/12/24 08:30:38;;;;;;;;;;;14.30;99.90;;;;;;5048453;28;20565;-76
2022/12/24 08:33:04;;;;;;;;;;;14.30;99.90;;;;;;5044518;28;19909;-76
2022/12/24 08:35:29;;;;;;;;;;;14.30;99.90;;;;;;5040988;28;19909;-75
2022/12/24 08:37:55;;;;;;;;;;;14.30;99.90;;;;;;5048886;28;19924;-74
2022/12/24 08:40:20;;;;;;;;;;;14.40;99.90;;;;;;5039180;28;19935;-74
2022/12/24 08:42:46;;;;;;;;;;;14.30;99.90;;;;;;5044536;28;19925;-75
2022/12/24 08:45:12;;;;;;;;;;;14.30;99.90;;;;;;5044389;28;19994;-74
2022/12/24 08:47:38;;;;;;;;;;;14.40;99.90;;;;;;5044409;28;19916;-75
2022/12/24 08:50:04;;;;;;;;;;;14.30;99.90;;;;;;5043535;28;19999;-74
2022/12/24 08:52:29;;;;;;;;;;;14.40;99.90;;;;;;5044585;28;20327;-73
2022/12/24 08:54:54;;;;;;;;;;;14.40;99.90;;;;;;5042786;28;19931;-73
2022/12/24 08:57:20;;;;;;;;;;;14.40;99.90;;;;;;5034541;28;20322;-75
2022/12/24 08:59:45;;;;;;;;;;;14.50;99.90;;;;;;5038581;28;20283;-75
2022/12/24 09:02:11;;;;;;;;;;;14.50;99.90;;;;;;5041856;28;19999;-75
2022/12/24 09:04:38;;;;;;;;;;;14.40;99.90;;;;;;5040930;28;20209;-75
2022/12/24 09:07:04;;;;;;;;;;;14.50;99.90;;;;;;5040293;28;20361;-74
2022/12/24 09:09:30;;;;;;;;;;;14.60;99.90;;;;;;5041705;28;20011;-74
2022/12/24 09:11:55;;;;;;;;;;;14.60;99.90;;;;;;5049178;28;19956;-74
2022/12/24 09:14:21;;;;;;;;;;;14.70;99.90;;;;;;5046868;28;20334;-75
2022/12/24 09:16:46;;;;;;;;;;;14.80;99.90;;;;;;5043833;28;19909;-76
2022/12/24 09:19:11;;;;;;;;;;;14.80;99.90;;;;;;5042578;28;19955;-75
2022/12/24 09:21:37;;;;;;;;;;;14.80;99.90;;;;;;5043720;28;19924;-74
2022/12/24 09:24:03;;;;;;;;;;;14.80;99.90;;;;;;5045218;28;19968;-75
2022/12/24 09:26:30;;;;;;;;;;;14.70;99.90;;;;;;5042464;28;19930;-72
2022/12/24 09:28:56;;;;;;;;;;;14.60;99.90;;;;;;5038596;28;19963;-74
2022/12/24 09:31:21;;;;;;;;;;;14.50;99.90;;;;;;5044845;28;19963;-74
2022/12/24 09:33:47;;;;;;;;;;;14.50;99.90;;;;;;5048814;28;19912;-73
2022/12/24 09:36:13;;;;;;;;;;;14.50;99.90;;;;;;5052405;28;19927;-74
2022/12/24 09:38:39;;;;;;;;;;;14.50;99.90;;;;;;5041907;28;19925;-75
2022/12/24 09:41:23;;;;;;;;;;;14.50;99.90;;;;;;5047940;28;19935;-74
2022/12/24 09:43:52;;;;;;;;;;;14.60;99.90;;;;;;5044806;28;19932;-74
2022/12/24 09:46:23;;;;;;;;;;;14.60;99.90;;;;;;5042673;28;19924;-75
2022/12/24 09:48:54;;;;;;;;;;;14.60;99.90;;;;;;5044296;28;19921;-75
2022/12/24 09:51:33;;;;;;;;;;;14.70;99.90;;;;;;5044744;28;20024;-76
2022/12/24 09:54:01;;;;;;;;;;;14.80;99.90;;;;;;5042089;28;19997;-73
2022/12/24 09:56:29;;;;;;;;;;;14.70;99.90;;;;;;5040347;28;19948;-74
2022/12/24 09:59:01;;;;;;;;;;;14.60;99.90;;;;;;5041953;28;20363;-74
2022/12/24 10:01:30;;;;;;;;;;;14.70;99.90;;;;;;5044802;28;20357;-75
2022/12/24 10:04:03;;;;;;;;;;;14.60;99.90;;;;;;5043757;28;19917;-74
2022/12/24 10:06:34;;;;;;;;;;;14.60;99.90;;;;;;5046806;28;19912;-71
2022/12/24 10:09:00;;;;;;;;;;;14.60;99.90;;;;;;5025540;28;20756;-75
2022/12/24 10:11:32;;;;;;;;;;;14.60;99.90;;;;;;5035748;28;19913;-75
2022/12/24 10:13:57;;;;;;;;;;;14.60;99.90;;;;;;5028758;28;20338;-75
2022/12/24 10:16:30;;;;;;;;;;;14.40;99.90;;;;;;5045295;28;19917;-75
2022/12/24 10:19:09;;;;;;;;;;;14.30;99.90;;;;;;5042850;28;20004;-74
2022/12/24 10:21:53;;;;;;;;;;;14.30;99.90;;;;;;5045924;28;19960;-74
2022/12/24 10:24:23;;;;;;;;;;;14.20;99.90;;;;;;5040519;28;19913;-74
2022/12/24 10:27:13;;;;;;;;;;;14.20;99.90;;;;;;5020991;28;21258;-73
2022/12/24 10:29:49;;;;;;;;;;;14.10;99.90;;;;;;5035958;28;20524;-74
2022/12/24 10:32:20;;;;;;;;;;;14.10;99.90;;;;;;5039723;28;19957;-76
2022/12/24 10:34:52;;;;;;;;;;;14.10;99.90;;;;;;5042936;28;20126;-73
2022/12/24 10:37:23;;;;;;;;;;;13.90;99.90;;;;;;5040351;28;19917;-75
2022/12/24 10:39:48;;;;;;;;;;;13.90;99.90;;;;;;5043519;28;20003;-76
2022/12/24 10:42:15;;;;;;;;;;;13.80;99.90;;;;;;5043936;28;20047;-74
2022/12/24 10:44:42;;;;;;;;;;;13.70;99.90;;;;;;5040697;28;19939;-76
2022/12/24 10:47:09;;;;;;;;;;;13.70;99.90;;;;;;5033267;28;20399;-74
2022/12/24 10:49:40;;;;;;;;;;;13.70;99.90;;;;;;5042795;28;20070;-73
2022/12/24 10:52:18;;;;;;;;;;;13.70;99.90;;;;;;5041965;28;19909;-75
2022/12/24 10:55:03;;;;;;;;;;;13.60;99.90;;;;;;5040658;28;19935;-73
2022/12/24 10:57:29;;;;;;;;;;;13.60;99.90;;;;;;5042952;28;19924;-72
2022/12/24 10:59:55;;;;;;;;;;;13.40;99.90;;;;;;5047612;28;19920;-75
2022/12/24 11:02:24;;;;;;;;;;;13.40;99.90;;;;;;5046269;28;19927;-74
2022/12/24 11:04:50;;;;;;;;;;;13.40;99.90;;;;;;5048302;28;19925;-75
2022/12/24 11:07:17;;;;;;;;;;;13.30;99.90;;;;;;5047320;28;19912;-74
2022/12/24 11:09:52;;;;;;;;;;;13.20;99.90;;;;;;5039578;28;19917;-74
2022/12/24 11:12:20;;;;;;;;;;;13.20;99.90;;;;;;5043343;28;20340;-74
2022/12/24 11:14:46;;;;;;;;;;;13.10;99.90;;;;;;5044044;28;19916;-74
2022/12/24 11:17:19;;;;;;;;;;;13.10;99.90;;;;;;5042012;28;19913;-73
2022/12/24 11:19:47;;;;;;;;;;;13.10;99.90;;;;;;5043372;28;19985;-73
2022/12/24 11:22:17;;;;;;;;;;;13.10;99.90;;;;;;5042301;28;19983;-74
2022/12/24 11:24:43;;;;;;;;;;;13.10;99.90;;;;;;5035694;28;20058;-75
2022/12/24 11:27:28;;;;;;;;;;;13.10;99.90;;;;;;5044808;28;19999;-73
2022/12/24 11:30:10;;;;;;;;;;;13.20;99.90;;;;;;5044545;28;20033;-75
2022/12/24 11:32:36;;;;;;;;;;;13.30;99.90;;;;;;5036972;28;19953;-74
2022/12/24 11:35:04;;;;;;;;;;;13.20;99.90;;;;;;5040594;28;19917;-75
2022/12/24 11:37:30;;;;;;;;;;;13.30;99.90;;;;;;5035332;28;20350;-74
2022/12/24 11:39:58;;;;;;;;;;;13.30;99.90;;;;;;5034124;28;19917;-74
2022/12/24 11:42:24;;;;;;;;;;;13.30;99.90;;;;;;5044441;28;19909;-75
2022/12/24 11:44:50;;;;;;;;;;;13.00;99.90;;;;;;5034859;28;20015;-74
2022/12/24 11:47:15;;;;;;;;;;;12.90;99.90;;;;;;5040077;28;19951;-75
2022/12/24 11:49:40;;;;;;;;;;;12.90;99.90;;;;;;5045785;28;20003;-76
2022/12/24 11:52:09;;;;;;;;;;;12.80;99.90;;;;;;5042230;28;19913;-76
2022/12/24 11:54:38;;;;;;;;;;;12.90;99.90;;;;;;5039623;28;19947;-76
2022/12/24 11:57:04;;;;;;;;;;;12.90;99.90;;;;;;5037015;28;19948;-72
2022/12/24 11:59:42;;;;;;;;;;;12.70;99.90;;;;;;5037899;28;19917;-73
2022/12/24 12:02:11;;;;;;;;;;;12.70;99.90;;;;;;5039139;28;20002;-76
2022/12/24 12:04:37;;;;;;;;;;;12.70;99.90;;;;;;5041564;28;20513;-73
2022/12/24 12:07:03;;;;;;;;;;;12.60;99.90;;;;;;5038771;28;19925;-73
2022/12/24 12:09:31;;;;;;;;;;;12.60;99.90;;;;;;5040965;28;19912;-74
2022/12/24 12:11:59;;;;;;;;;;;12.60;99.90;;;;;;5030310;28;19928;-74
2022/12/24 12:14:34;;;;;;;;;;;12.70;99.90;;;;;;5045642;28;20110;-73
2022/12/24 12:17:06;;;;;;;;;;;12.70;99.90;;;;;;5043017;28;19909;-72
2022/12/24 12:19:43;;;;;;;;;;;12.90;99.90;;;;;;5046201;28;19982;-74
2022/12/24 12:22:14;;;;;;;;;;;12.70;99.90;;;;;;5036892;28;19909;-74
2022/12/24 12:24:42;;;;;;;;;;;12.60;99.90;;;;;;5041566;28;20518;-73
2022/12/24 12:27:27;;;;;;;;;;;12.40;99.90;;;;;;5034529;28;19967;-74
2022/12/24 12:30:01;;;;;;;;;;;12.50;99.90;;;;;;5038336;28;19913;-75
2022/12/24 12:32:29;;;;;;;;;;;12.40;99.90;;;;;;5046082;28;19909;-75
2022/12/24 12:35:00;;;;;;;;;;;12.30;99.90;;;;;;5038403;28;19999;-73
2022/12/24 12:37:29;;;;;;;;;;;12.30;99.90;;;;;;5037197;28;20422;-75
2022/12/24 12:39:55;;;;;;;;;;;12.30;99.90;;;;;;5038397;28;19987;-75
2022/12/24 12:42:23;;;;;;;;;;;12.30;99.90;;;;;;5034230;28;20423;-75
2022/12/24 12:44:49;;;;;;;;;;;12.40;99.90;;;;;;5040145;28;19921;-75
2022/12/24 12:47:33;;;;;;;;;;;12.30;99.90;;;;;;5044060;28;19916;-72
2022/12/24 12:50:17;;;;;;;;;;;12.30;99.90;;;;;;5037375;28;20379;-72
2022/12/24 12:52:48;;;;;;;;;;;12.50;99.90;;;;;;5036800;28;20041;-74
2022/12/24 12:55:32;;;;;;;;;;;12.80;99.90;;;;;;5031755;28;19951;-76
2022/12/24 12:58:03;;;;;;;;;;;12.80;99.90;;;;;;5035856;28;19909;-72
2022/12/24 13:00:32;;;;;;;;;;;12.70;99.90;;;;;;5035128;28;19980;-73
2022/12/24 13:03:16;;;;;;;;;;;12.50;99.90;;;;;;5032747;28;19924;-77
2022/12/24 13:05:53;;;;;;;;;;;12.30;99.90;;;;;;5038006;28;19920;-76
2022/12/24 13:08:27;;;;;;;;;;;12.10;99.90;;;;;;5031855;28;20011;-75
2022/12/24 13:11:22;;;;;;;;;;;12.20;99.90;;;;;;5036849;28;20008;-76
2022/12/24 13:14:03;;;;;;;;;;;12.20;99.90;;;;;;5022095;28;19915;-74
2022/12/24 13:16:36;;;;;;;;;;;12.10;99.90;;;;;;5032696;28;20287;-73
2022/12/24 13:19:01;;;;;;;;;;;12.00;99.90;;;;;;5027979;28;19952;-75
2022/12/24 13:21:28;;;;;;;;;;;11.90;99.90;;;;;;5033198;28;19913;-74
2022/12/24 13:24:13;;;;;;;;;;;11.90;99.90;;;;;;5031216;28;19971;-75
2022/12/24 13:26:39;;;;;;;;;;;11.90;99.90;;;;;;5034858;28;19908;-75
2022/12/24 13:29:23;;;;;;;;;;;11.80;99.90;;;;;;5039455;28;20386;-73
2022/12/24 13:31:48;;;;;;;;;;;11.80;99.90;;;;;;5041176;28;20015;-74
2022/12/24 13:34:35;;;;;;;;;;;11.80;99.90;;;;;;5043107;28;20565;-74
2022/12/24 13:37:04;;;;;;;;;;;11.80;99.90;;;;;;5038542;28;19915;-72
2022/12/24 13:39:49;;;;;;;;;;;11.90;99.90;;;;;;5042646;28;19924;-73
2022/12/24 13:42:35;;;;;;;;;;;12.00;99.90;;;;;;5039608;28;19917;-73
2022/12/24 13:45:19;;;;;;;;;;;11.80;99.90;;;;;;5039455;28;19943;-75
2022/12/24 13:47:45;;;;;;;;;;;11.70;99.90;;;;;;5046154;28;19944;-75
2022/12/24 13:50:21;;;;;;;;;;;11.80;99.90;;;;;;5044484;28;19955;-73
2022/12/24 13:52:51;;;;;;;;;;;11.70;99.90;;;;;;5045432;28;19913;-75
2022/12/24 13:55:17;;;;;;;;;;;11.70;99.90;;;;;;5045847;28;19919;-74
2022/12/24 13:57:51;;;;;;;;;;;11.70;99.90;;;;;;5043067;28;19912;-73
2022/12/24 14:00:20;;;;;;;;;;;11.70;99.90;;;;;;5045767;28;19930;-75
2022/12/24 14:03:05;;;;;;;;;;;11.70;99.90;;;;;;5044303;28;19916;-71
2022/12/24 14:05:43;;;;;;;;;;;11.70;99.90;;;;;;5017072;28;19951;-74
2022/12/24 14:08:10;;;;;;;;;;;11.70;99.90;;;;;;5042702;28;19921;-74
2022/12/24 14:10:43;;;;;;;;;;;11.80;99.90;;;;;;5038381;28;19917;-74
2022/12/24 14:13:28;;;;;;;;;;;11.90;99.90;;;;;;5042573;28;19916;-73
2022/12/24 14:15:56;;;;;;;;;;;11.90;99.90;;;;;;5040381;28;20067;-75
2022/12/24 14:18:23;;;;;;;;;;;11.90;99.90;;;;;;5039575;28;20423;-74
2022/12/24 14:20:53;;;;;;;;;;;11.90;99.90;;;;;;5040869;28;19931;-73
2022/12/24 14:23:27;;;;;;;;;;;11.90;99.90;;;;;;5042424;28;20062;-75
2022/12/24 14:25:52;;;;;;;;;;;11.80;99.90;;;;;;5040289;28;19921;-74
2022/12/24 14:28:22;;;;;;;;;;;11.80;99.90;;;;;;5037063;28;20749;-74
2022/12/24 14:30:58;;;;;;;;;;;11.80;99.90;;;;;;5049500;28;20569;-74
2022/12/24 14:33:27;;;;;;;;;;;11.80;99.90;;;;;;5045049;28;20019;-73